createdAt,value
2019-03-12T00:00:03.870Z,2.13
2019-03-12T00:05:00.247Z,2.05
2019-03-12T00:09:56.412Z,2.12
2019-03-12T00:14:52.713Z,2.16
2019-03-12T00:19:49.242Z,2.18
2019-03-12T00:24:45.382Z,2.15
2019-03-12T00:29:41.587Z,2.12
2019-03-12T00:34:37.798Z,2.14
2019-03-12T00:39:33.871Z,2.12
2019-03-12T00:44:29.966Z,2.34
2019-03-12T00:49:26.182Z,2.27
2019-03-12T00:54:22.209Z,2.27
2019-03-12T00:59:18.402Z,2.25
2019-03-12T01:04:14.525Z,2.16
2019-03-12T01:09:11.594Z,2.05
2019-03-12T01:14:07.631Z,2.10
2019-03-12T01:19:03.763Z,1.89
2019-03-12T01:24:03.913Z,1.85
2019-03-12T01:29:04.150Z,1.71
2019-03-12T01:34:00.364Z,1.75
2019-03-12T01:38:56.475Z,1.62
2019-03-12T01:43:52.596Z,1.55
2019-03-12T01:48:48.767Z,1.53
2019-03-12T01:53:44.897Z,1.55
2019-03-12T01:58:41.109Z,1.60
2019-03-12T02:03:37.214Z,1.48
2019-03-12T02:08:33.261Z,1.44
2019-03-12T02:13:29.393Z,1.72
2019-03-12T02:18:25.465Z,1.57
2019-03-12T02:23:21.477Z,1.44
2019-03-12T02:28:17.570Z,1.59
2019-03-12T02:33:13.729Z,1.64
2019-03-12T02:38:09.847Z,1.48
2019-03-12T02:43:06.051Z,1.58
2019-03-12T02:48:02.217Z,1.69
2019-03-12T02:52:58.282Z,1.73
2019-03-12T02:57:54.398Z,1.71
2019-03-12T03:02:50.667Z,1.81
2019-03-12T03:07:54.435Z,1.79
2019-03-12T03:12:51.032Z,1.86
2019-03-12T03:17:47.409Z,1.77
2019-03-12T03:22:43.641Z,1.83
2019-03-12T03:27:47.373Z,1.82
2019-03-12T03:32:43.617Z,1.88
2019-03-12T03:45:26.044Z,1.78
2019-03-12T03:51:30.520Z,1.78
2019-03-12T03:56:52.690Z,1.80
2019-03-12T04:14:11.322Z,1.77
2019-03-12T04:24:51.116Z,1.65
2019-03-12T04:41:55.706Z,1.43
2019-03-12T04:59:43.338Z,1.41
2019-03-12T05:04:46.749Z,1.32
2019-03-12T05:09:43.040Z,1.41
2019-03-12T05:14:42.061Z,1.42
2019-03-12T05:19:40.394Z,1.49
2019-03-12T05:24:36.707Z,1.53
2019-03-12T05:29:33.114Z,1.35
2019-03-12T05:34:29.296Z,1.34
2019-03-12T05:39:25.722Z,1.32
2019-03-12T05:44:24.892Z,1.33
2019-03-12T05:49:20.948Z,1.35
2019-03-12T05:54:17.039Z,1.20
2019-03-12T05:59:13.636Z,1.27
2019-03-12T06:04:10.059Z,1.20
2019-03-12T06:09:07.773Z,1.22
2019-03-12T06:14:06.757Z,1.11
2019-03-12T06:19:03.025Z,1.24
2019-03-12T06:23:59.378Z,1.28
2019-03-12T06:28:55.764Z,1.26
2019-03-12T06:33:56.523Z,1.26
2019-03-12T06:38:59.321Z,1.37
2019-03-12T06:44:03.324Z,1.44
2019-03-12T06:49:28.093Z,1.42
2019-03-12T06:55:13.733Z,1.51
2019-03-12T07:00:44.077Z,1.62
2019-03-12T07:06:03.663Z,1.68
2019-03-12T07:11:39.885Z,1.79
2019-03-12T07:16:52.038Z,1.88
2019-03-12T07:22:18.989Z,1.97
2019-03-12T07:28:00.223Z,2.19
2019-03-12T07:33:13.719Z,2.28
2019-03-12T07:38:40.957Z,2.42
2019-03-12T07:44:07.531Z,2.60
2019-03-12T07:49:22.438Z,2.98
2019-03-12T07:54:40.363Z,3.34
2019-03-12T07:59:55.662Z,3.86
2019-03-12T08:05:02.555Z,4.30
2019-03-12T08:10:07.079Z,4.86
2019-03-12T08:15:22.984Z,5.29
2019-03-12T08:20:36.638Z,5.82
2019-03-12T08:25:54.639Z,6.18
2019-03-12T08:31:18.769Z,6.35
2019-03-12T08:36:33.721Z,6.70
2019-03-12T08:41:38.686Z,6.96
2019-03-12T08:47:00.958Z,6.70
2019-03-12T08:52:11.310Z,7.08
2019-03-12T08:57:24.374Z,7.09
2019-03-12T09:02:52.036Z,7.38
2019-03-12T09:08:22.325Z,7.50
2019-03-12T09:13:37.372Z,7.67
2019-03-12T09:19:04.509Z,7.91
2019-03-12T09:24:38.977Z,8.20
2019-03-12T09:41:54.742Z,8.25
2019-03-12T09:47:00.496Z,8.40
2019-03-12T09:52:10.935Z,8.54
2019-03-12T09:57:37.015Z,8.79
2019-03-12T10:02:50.564Z,8.78
2019-03-12T10:07:56.080Z,8.82
2019-03-12T10:13:13.355Z,8.85
2019-03-12T10:18:34.318Z,8.54
2019-03-12T10:23:56.421Z,8.53
2019-03-12T10:29:04.755Z,8.45
2019-03-12T10:34:36.950Z,8.32
2019-03-12T10:40:18.660Z,8.30
2019-03-12T10:45:46.046Z,7.91
2019-03-12T10:50:44.285Z,7.41
2019-03-12T10:55:43.602Z,7.50
2019-03-12T11:00:44.177Z,7.52
2019-03-12T11:05:49.721Z,7.47
2019-03-12T11:10:53.330Z,7.52
2019-03-12T11:16:00.705Z,7.41
2019-03-12T11:20:58.847Z,7.47
2019-03-12T11:25:57.575Z,7.31
2019-03-12T11:30:58.017Z,7.21
2019-03-12T11:35:57.229Z,7.19
2019-03-12T11:41:09.943Z,7.27
2019-03-12T11:46:41.439Z,7.24
2019-03-12T11:51:36.754Z,7.12
2019-03-12T11:56:32.825Z,7.20
2019-03-12T12:01:32.955Z,7.51
2019-03-12T12:06:42.378Z,7.74
2019-03-12T12:11:40.870Z,8.00
2019-03-12T12:16:39.100Z,8.19
2019-03-12T12:21:39.045Z,8.23
2019-03-12T12:26:34.903Z,8.22
2019-03-12T12:31:36.121Z,8.11
2019-03-12T12:36:31.980Z,8.27
2019-03-12T12:41:42.379Z,8.55
2019-03-12T12:46:51.034Z,8.76
2019-03-12T12:51:49.691Z,8.69
2019-03-12T12:56:49.910Z,8.88
2019-03-12T13:02:00.161Z,8.93
2019-03-12T13:07:12.338Z,8.94
2019-03-12T13:12:52.922Z,9.05
2019-03-12T13:23:25.763Z,8.42
2019-03-12T13:29:44.447Z,8.35
2019-03-12T13:36:21.593Z,8.39
2019-03-12T13:41:54.295Z,8.36
2019-03-12T13:46:52.923Z,8.43
2019-03-12T13:51:49.042Z,8.46
2019-03-12T13:56:45.217Z,8.53
2019-03-12T14:01:43.579Z,8.58
2019-03-12T14:07:17.232Z,8.68
2019-03-12T14:12:17.536Z,8.67
2019-03-12T14:17:24.311Z,8.80
2019-03-12T14:22:22.951Z,8.89
2019-03-12T14:27:42.106Z,8.91
2019-03-12T14:32:38.763Z,8.71
2019-03-12T14:37:36.361Z,8.65
2019-03-12T14:42:37.396Z,8.55
2019-03-12T14:47:46.507Z,8.76
2019-03-12T14:52:50.439Z,8.76
2019-03-12T14:57:48.426Z,8.60
2019-03-12T15:02:51.623Z,8.66
2019-03-12T15:07:47.650Z,8.75
2019-03-12T15:12:48.721Z,8.78
2019-03-12T15:17:47.651Z,8.73
2019-03-12T15:22:47.994Z,8.51
2019-03-12T15:27:48.881Z,8.59
2019-03-12T15:32:52.213Z,8.52
2019-03-12T15:37:54.191Z,8.42
2019-03-12T15:42:55.786Z,8.55
2019-03-12T15:48:05.825Z,8.45
2019-03-12T15:53:07.370Z,8.46
2019-03-12T15:58:35.007Z,8.47
2019-03-12T16:03:41.946Z,8.31
2019-03-12T16:08:56.326Z,8.24
2019-03-12T16:13:59.473Z,8.32
2019-03-12T16:19:31.457Z,8.19
2019-03-12T16:24:34.483Z,8.18
2019-03-12T16:29:37.283Z,8.05
2019-03-12T16:34:36.022Z,8.05
2019-03-12T16:39:40.998Z,8.05
2019-03-12T16:44:46.570Z,7.89
2019-03-12T16:49:49.939Z,7.65
2019-03-12T16:54:46.246Z,7.45
2019-03-12T16:59:45.516Z,7.29
2019-03-12T17:04:41.571Z,7.20
2019-03-12T17:09:40.725Z,7.14
2019-03-12T17:15:44.273Z,7.03
2019-03-12T17:20:40.476Z,6.97
2019-03-12T17:25:36.619Z,6.94
2019-03-12T17:36:59.862Z,6.80
2019-03-12T17:42:05.763Z,6.72
2019-03-12T17:47:14.394Z,6.61
2019-03-12T17:52:15.059Z,6.49
2019-03-12T17:57:34.909Z,6.26
2019-03-12T18:02:42.732Z,6.06
2019-03-12T18:19:07.153Z,5.95
2019-03-12T18:24:10.766Z,5.95
2019-03-12T18:29:09.630Z,5.93
2019-03-12T18:34:11.390Z,5.83
2019-03-12T18:39:10.081Z,5.70
2019-03-12T18:44:05.930Z,5.66
2019-03-12T18:49:01.748Z,5.79
2019-03-12T19:00:12.753Z,5.88
2019-03-12T19:05:46.048Z,5.89
2019-03-12T20:41:37.511Z,5.55
2019-03-12T20:47:38.153Z,5.60
2019-03-12T20:53:20.378Z,5.39
2019-03-12T20:59:09.921Z,5.17
2019-03-12T21:05:19.554Z,5.45
2019-03-12T21:11:09.981Z,5.50
2019-03-12T21:17:22.344Z,5.44
2019-03-12T21:24:01.229Z,5.51
2019-03-12T21:42:17.543Z,6.27
2019-03-12T21:47:15.458Z,6.38
2019-03-12T21:59:04.993Z,6.48
2019-03-12T22:04:01.342Z,6.39
2019-03-12T22:08:58.026Z,6.49
2019-03-12T22:13:54.545Z,6.58
2019-03-12T22:18:50.781Z,6.59
2019-03-12T22:23:49.045Z,6.63
2019-03-12T22:28:45.367Z,6.81
2019-03-12T22:33:41.578Z,6.85
2019-03-12T22:38:37.768Z,6.82
2019-03-12T22:43:34.417Z,6.88
2019-03-12T22:48:31.094Z,7.02
2019-03-12T22:53:27.560Z,7.10
2019-03-12T22:58:23.993Z,7.20
2019-03-12T23:03:27.829Z,7.50
2019-03-12T23:08:23.891Z,7.62
2019-03-12T23:13:20.000Z,7.51
2019-03-12T23:18:16.137Z,7.46
2019-03-12T23:23:12.179Z,7.28
2019-03-12T23:28:08.387Z,7.13
2019-03-12T23:33:04.690Z,7.30
2019-03-12T23:38:01.177Z,7.23
2019-03-12T23:42:57.389Z,7.05
2019-03-12T23:47:53.448Z,7.02
2019-03-12T23:52:49.561Z,6.94
2019-03-12T23:57:45.973Z,6.92
